sensor_id;sensor_type;location;lat;lon;timestamp;temperature;humidity
28532;DHT22;15738;44.860;10.066;2023-09-19T00:00:23;22.30;99.90
28532;DHT22;15738;44.860;10.066;2023-09-19T00:03:13;22.40;99.90
28532;DHT22;15738;44.860;10.066;2023-09-19T00:08:53;22.00;99.90
28532;DHT22;15738;44.860;10.066;2023-09-19T00:11:40;22.20;99.90
28532;DHT22;15738;44.860;10.066;2023-09-19T00:14:29;22.00;99.90
28532;DHT22;15738;44.860;10.066;2023-09-19T00:17:16;22.20;99.90
28532;DHT22;15738;44.860;10.066;2023-09-19T00:20:06;21.90;99.90
28532;DHT22;15738;44.860;10.066;2023-09-19T00:31:23;21.70;99.90
28532;DHT22;15738;44.860;10.066;2023-09-19T00:34:12;22.00;99.90
28532;DHT22;15738;44.860;10.066;2023-09-19T00:37:00;21.70;99.90
28532;DHT22;15738;44.860;10.066;2023-09-19T00:39:49;21.80;99.90
28532;DHT22;15738;44.860;10.066;2023-09-19T00:42:42;22.50;99.90
28532;DHT22;15738;44.860;10.066;2023-09-19T00:45:33;21.80;99.90
28532;DHT22;15738;44.860;10.066;2023-09-19T00:48:24;21.60;99.90
28532;DHT22;15738;44.860;10.066;2023-09-19T00:51:15;21.70;99.90
28532;DHT22;15738;44.860;10.066;2023-09-19T00:54:05;21.60;99.90
28532;DHT22;15738;44.860;10.066;2023-09-19T00:56:53;21.80;99.90
28532;DHT22;15738;44.860;10.066;2023-09-19T00:59:41;21.60;99.90
28532;DHT22;15738;44.860;10.066;2023-09-19T01:02:32;21.80;99.90
28532;DHT22;15738;44.860;10.066;2023-09-19T01:05:23;21.50;99.90
28532;DHT22;15738;44.860;10.066;2023-09-19T01:08:12;21.90;99.90
28532;DHT22;15738;44.860;10.066;2023-09-19T01:11:02;21.30;99.90
28532;DHT22;15738;44.860;10.066;2023-09-19T01:14:20;21.90;99.90
28532;DHT22;15738;44.860;10.066;2023-09-19T01:20:18;22.00;99.90
28532;DHT22;15738;44.860;10.066;2023-09-19T01:27:00;21.40;99.90
28532;DHT22;15738;44.860;10.066;2023-09-19T01:29:50;21.30;99.90
28532;DHT22;15738;44.860;10.066;2023-09-19T01:32:38;21.30;99.90
28532;DHT22;15738;44.860;10.066;2023-09-19T01:35:27;22.20;99.90
28532;DHT22;15738;44.860;10.066;2023-09-19T01:38:13;22.20;99.90
28532;DHT22;15738;44.860;10.066;2023-09-19T01:41:07;21.10;99.90
28532;DHT22;15738;44.860;10.066;2023-09-19T01:44:00;21.10;99.90
28532;DHT22;15738;44.860;10.066;2023-09-19T01:46:51;21.20;99.90
28532;DHT22;15738;44.860;10.066;2023-09-19T01:49:48;21.00;99.90
28532;DHT22;15738;44.860;10.066;2023-09-19T01:52:46;21.30;99.90
28532;DHT22;15738;44.860;10.066;2023-09-19T01:55:43;21.30;99.90
28532;DHT22;15738;44.860;10.066;2023-09-19T01:58:46;21.10;99.90
28532;DHT22;15738;44.860;10.066;2023-09-19T02:01:38;21.20;99.90
28532;DHT22;15738;44.860;10.066;2023-09-19T02:04:24;21.40;99.90
28532;DHT22;15738;44.860;10.066;2023-09-19T02:07:13;20.80;99.90
28532;DHT22;15738;44.860;10.066;2023-09-19T02:10:03;22.30;99.90
28532;DHT22;15738;44.860;10.066;2023-09-19T02:12:51;21.60;99.90
28532;DHT22;15738;44.860;10.066;2023-09-19T02:15:38;21.10;99.90
28532;DHT22;15738;44.860;10.066;2023-09-19T02:18:25;21.40;99.90
28532;DHT22;15738;44.860;10.066;2023-09-19T02:24:01;21.50;99.90
28532;DHT22;15738;44.860;10.066;2023-09-19T02:26:50;21.40;99.90
28532;DHT22;15738;44.860;10.066;2023-09-19T02:29:36;22.20;99.90
28532;DHT22;15738;44.860;10.066;2023-09-19T02:32:23;21.30;99.90
28532;DHT22;15738;44.860;10.066;2023-09-19T02:35:10;21.20;99.90
28532;DHT22;15738;44.860;10.066;2023-09-19T02:37:59;21.00;99.90
28532;DHT22;15738;44.860;10.066;2023-09-19T02:40:47;21.00;99.90
28532;DHT22;15738;44.860;10.066;2023-09-19T02:43:39;20.90;99.90
28532;DHT22;15738;44.860;10.066;2023-09-19T02:49:11;21.00;99.90
28532;DHT22;15738;44.860;10.066;2023-09-19T02:52:00;20.90;99.90
28532;DHT22;15738;44.860;10.066;2023-09-19T02:54:47;21.40;99.90
28532;DHT22;15738;44.860;10.066;2023-09-19T02:57:33;21.60;99.90
28532;DHT22;15738;44.860;10.066;2023-09-19T03:00:21;21.40;99.90
28532;DHT22;15738;44.860;10.066;2023-09-19T03:03:08;21.60;99.90
28532;DHT22;15738;44.860;10.066;2023-09-19T03:08:41;21.20;99.90
28532;DHT22;15738;44.860;10.066;2023-09-19T03:11:29;21.00;99.90
28532;DHT22;15738;44.860;10.066;2023-09-19T03:14:16;21.30;99.90
28532;DHT22;15738;44.860;10.066;2023-09-19T03:17:06;22.20;99.90
28532;DHT22;15738;44.860;10.066;2023-09-19T03:19:52;21.40;99.90
28532;DHT22;15738;44.860;10.066;2023-09-19T03:22:39;21.20;99.90
28532;DHT22;15738;44.860;10.066;2023-09-19T03:25:25;21.40;99.90
28532;DHT22;15738;44.860;10.066;2023-09-19T03:30:59;20.80;99.90
28532;DHT22;15738;44.860;10.066;2023-09-19T03:33:47;20.70;99.90
28532;DHT22;15738;44.860;10.066;2023-09-19T03:36:32;20.70;99.90
28532;DHT22;15738;44.860;10.066;2023-09-19T03:39:18;20.80;99.90
28532;DHT22;15738;44.860;10.066;2023-09-19T03:44:54;20.80;99.90
28532;DHT22;15738;44.860;10.066;2023-09-19T03:47:41;21.30;99.90
28532;DHT22;15738;44.860;10.066;2023-09-19T03:50:28;21.20;99.90
28532;DHT22;15738;44.860;10.066;2023-09-19T03:53:17;21.30;99.90
28532;DHT22;15738;44.860;10.066;2023-09-19T03:56:04;21.50;99.90
28532;DHT22;15738;44.860;10.066;2023-09-19T04:09:56;21.30;99.90
28532;DHT22;15738;44.860;10.066;2023-09-19T04:12:56;21.30;99.90
28532;DHT22;15738;44.860;10.066;2023-09-19T04:21:17;21.10;99.90
28532;DHT22;15738;44.860;10.066;2023-09-19T04:24:05;21.00;99.90
28532;DHT22;15738;44.860;10.066;2023-09-19T04:26:51;21.00;99.90
28532;DHT22;15738;44.860;10.066;2023-09-19T04:32:31;21.80;99.90
28532;DHT22;15738;44.860;10.066;2023-09-19T04:35:18;21.10;99.90
28532;DHT22;15738;44.860;10.066;2023-09-19T04:40:57;21.30;99.90
28532;DHT22;15738;44.860;10.066;2023-09-19T04:43:44;20.80;99.90
28532;DHT22;15738;44.860;10.066;2023-09-19T04:49:16;20.80;99.90
28532;DHT22;15738;44.860;10.066;2023-09-19T04:54:51;20.70;99.90
28532;DHT22;15738;44.860;10.066;2023-09-19T04:57:37;21.30;99.90
28532;DHT22;15738;44.860;10.066;2023-09-19T05:00:23;20.70;99.90
28532;DHT22;15738;44.860;10.066;2023-09-19T05:03:10;20.80;99.90
28532;DHT22;15738;44.860;10.066;2023-09-19T05:11:28;21.20;99.90
28532;DHT22;15738;44.860;10.066;2023-09-19T05:25:21;21.10;99.90
28532;DHT22;15738;44.860;10.066;2023-09-19T05:28:09;21.00;99.90
28532;DHT22;15738;44.860;10.066;2023-09-19T05:30:57;20.80;99.90
28532;DHT22;15738;44.860;10.066;2023-09-19T05:33:45;21.40;99.90
28532;DHT22;15738;44.860;10.066;2023-09-19T05:42:04;21.80;99.90
28532;DHT22;15738;44.860;10.066;2023-09-19T05:44:50;22.10;99.90
28532;DHT22;15738;44.860;10.066;2023-09-19T05:47:36;22.20;99.90
28532;DHT22;15738;44.860;10.066;2023-09-19T05:50:22;22.40;99.90
28532;DHT22;15738;44.860;10.066;2023-09-19T05:53:10;22.70;99.90
28532;DHT22;15738;44.860;10.066;2023-09-19T05:56:01;23.10;99.90
28532;DHT22;15738;44.860;10.066;2023-09-19T05:58:47;23.70;99.90
28532;DHT22;15738;44.860;10.066;2023-09-19T06:01:32;24.50;99.90
28532;DHT22;15738;44.860;10.066;2023-09-19T06:04:20;25.20;99.90
28532;DHT22;15738;44.860;10.066;2023-09-19T06:09:53;26.40;99.90
28532;DHT22;15738;44.860;10.066;2023-09-19T06:12:40;27.30;99.90
28532;DHT22;15738;44.860;10.066;2023-09-19T06:15:26;27.30;99.90
28532;DHT22;15738;44.860;10.066;2023-09-19T06:18:12;27.10;99.90
28532;DHT22;15738;44.860;10.066;2023-09-19T06:26:39;27.70;99.90
28532;DHT22;15738;44.860;10.066;2023-09-19T06:32:12;27.10;99.90
28532;DHT22;15738;44.860;10.066;2023-09-19T06:34:57;25.60;99.90
28532;DHT22;15738;44.860;10.066;2023-09-19T06:37:45;26.40;99.90
28532;DHT22;15738;44.860;10.066;2023-09-19T06:40:31;24.90;99.90
28532;DHT22;15738;44.860;10.066;2023-09-19T06:43:17;26.20;99.90
28532;DHT22;15738;44.860;10.066;2023-09-19T06:46:04;26.40;99.90
28532;DHT22;15738;44.860;10.066;2023-09-19T06:57:10;27.10;99.90
28532;DHT22;15738;44.860;10.066;2023-09-19T06:59:56;26.90;99.90
28532;DHT22;15738;44.860;10.066;2023-09-19T07:02:42;26.90;99.90
28532;DHT22;15738;44.860;10.066;2023-09-19T07:05:28;27.00;99.90
28532;DHT22;15738;44.860;10.066;2023-09-19T07:08:14;27.10;99.90
28532;DHT22;15738;44.860;10.066;2023-09-19T07:11:01;27.20;99.90
28532;DHT22;15738;44.860;10.066;2023-09-19T07:19:22;27.10;99.90
28532;DHT22;15738;44.860;10.066;2023-09-19T07:24:55;26.90;99.90
28532;DHT22;15738;44.860;10.066;2023-09-19T07:27:42;27.50;99.90
28532;DHT22;15738;44.860;10.066;2023-09-19T07:30:28;27.70;99.90
28532;DHT22;15738;44.860;10.066;2023-09-19T07:41:34;26.50;99.90
28532;DHT22;15738;44.860;10.066;2023-09-19T07:44:19;26.40;99.90
28532;DHT22;15738;44.860;10.066;2023-09-19T07:49:52;27.00;99.90
28532;DHT22;15738;44.860;10.066;2023-09-19T07:55:24;26.80;99.90
28532;DHT22;15738;44.860;10.066;2023-09-19T08:01:05;27.30;99.90
28532;DHT22;15738;44.860;10.066;2023-09-19T08:03:52;27.30;99.90
28532;DHT22;15738;44.860;10.066;2023-09-19T08:09:25;28.40;99.90
28532;DHT22;15738;44.860;10.066;2023-09-19T08:20:29;27.00;99.90
28532;DHT22;15738;44.860;10.066;2023-09-19T08:31:41;27.90;99.90
28532;DHT22;15738;44.860;10.066;2023-09-19T08:39:59;28.80;99.90
28532;DHT22;15738;44.860;10.066;2023-09-19T08:42:56;28.70;99.90
28532;DHT22;15738;44.860;10.066;2023-09-19T08:48:29;28.60;99.90
28532;DHT22;15738;44.860;10.066;2023-09-19T08:54:25;28.60;99.90
28532;DHT22;15738;44.860;10.066;2023-09-19T08:57:17;28.90;99.90
28532;DHT22;15738;44.860;10.066;2023-09-19T09:00:08;28.90;99.90
28532;DHT22;15738;44.860;10.066;2023-09-19T09:02:58;28.90;99.90
28532;DHT22;15738;44.860;10.066;2023-09-19T09:05:46;29.20;99.90
28532;DHT22;15738;44.860;10.066;2023-09-19T09:11:20;28.50;99.90
28532;DHT22;15738;44.860;10.066;2023-09-19T09:14:07;28.70;99.90
28532;DHT22;15738;44.860;10.066;2023-09-19T09:16:55;28.30;99.90
28532;DHT22;15738;44.860;10.066;2023-09-19T09:19:45;28.50;99.90
28532;DHT22;15738;44.860;10.066;2023-09-19T09:25:18;28.60;99.90
28532;DHT22;15738;44.860;10.066;2023-09-19T09:28:04;27.90;99.90
28532;DHT22;15738;44.860;10.066;2023-09-19T09:30:50;28.20;99.90
28532;DHT22;15738;44.860;10.066;2023-09-19T09:36:37;27.80;99.90
28532;DHT22;15738;44.860;10.066;2023-09-19T09:39:30;27.80;99.90
28532;DHT22;15738;44.860;10.066;2023-09-19T09:42:30;27.80;99.90
28532;DHT22;15738;44.860;10.066;2023-09-19T09:45:23;27.50;99.90
28532;DHT22;15738;44.860;10.066;2023-09-19T09:48:25;27.60;99.90
28532;DHT22;15738;44.860;10.066;2023-09-19T09:51:30;27.60;99.90
28532;DHT22;15738;44.860;10.066;2023-09-19T09:54:16;27.40;99.90
28532;DHT22;15738;44.860;10.066;2023-09-19T10:08:31;27.80;99.90
28532;DHT22;15738;44.860;10.066;2023-09-19T10:11:17;27.90;99.90
28532;DHT22;15738;44.860;10.066;2023-09-19T10:14:06;28.00;99.90
28532;DHT22;15738;44.860;10.066;2023-09-19T10:16:55;27.80;99.90
28532;DHT22;15738;44.860;10.066;2023-09-19T10:19:54;27.70;99.90
28532;DHT22;15738;44.860;10.066;2023-09-19T10:22:43;27.80;99.90
28532;DHT22;15738;44.860;10.066;2023-09-19T10:28:18;27.70;99.90
28532;DHT22;15738;44.860;10.066;2023-09-19T10:31:08;27.50;99.90
28532;DHT22;15738;44.860;10.066;2023-09-19T10:33:55;27.70;99.90
28532;DHT22;15738;44.860;10.066;2023-09-19T10:36:46;27.80;99.90
28532;DHT22;15738;44.860;10.066;2023-09-19T10:39:32;28.30;99.90
28532;DHT22;15738;44.860;10.066;2023-09-19T10:42:19;27.80;99.90
28532;DHT22;15738;44.860;10.066;2023-09-19T10:48:00;27.50;99.90
28532;DHT22;15738;44.860;10.066;2023-09-19T10:51:28;27.30;99.90
28532;DHT22;15738;44.860;10.066;2023-09-19T10:54:21;28.10;99.90
28532;DHT22;15738;44.860;10.066;2023-09-19T10:57:12;28.00;99.90
28532;DHT22;15738;44.860;10.066;2023-09-19T11:00:06;28.50;99.90
28532;DHT22;15738;44.860;10.066;2023-09-19T11:03:20;28.40;99.90
28532;DHT22;15738;44.860;10.066;2023-09-19T11:06:17;28.50;99.90
28532;DHT22;15738;44.860;10.066;2023-09-19T11:17:39;28.70;99.90
28532;DHT22;15738;44.860;10.066;2023-09-19T11:20:31;28.40;99.90
28532;DHT22;15738;44.860;10.066;2023-09-19T11:26:44;28.70;99.90
28532;DHT22;15738;44.860;10.066;2023-09-19T11:41:40;29.00;99.90
28532;DHT22;15738;44.860;10.066;2023-09-19T11:47:12;28.40;99.90
28532;DHT22;15738;44.860;10.066;2023-09-19T11:50:01;28.30;99.90
28532;DHT22;15738;44.860;10.066;2023-09-19T11:52:47;28.50;99.90
28532;DHT22;15738;44.860;10.066;2023-09-19T11:55:36;28.50;99.90
28532;DHT22;15738;44.860;10.066;2023-09-19T11:58:24;28.20;99.90
28532;DHT22;15738;44.860;10.066;2023-09-19T12:01:14;28.30;99.90
28532;DHT22;15738;44.860;10.066;2023-09-19T12:04:02;28.40;99.90
28532;DHT22;15738;44.860;10.066;2023-09-19T12:06:56;28.50;99.90
28532;DHT22;15738;44.860;10.066;2023-09-19T12:15:25;27.90;99.90
28532;DHT22;15738;44.860;10.066;2023-09-19T12:18:29;28.60;99.90
28532;DHT22;15738;44.860;10.066;2023-09-19T12:21:30;28.70;99.90
28532;DHT22;15738;44.860;10.066;2023-09-19T12:27:07;28.80;99.90
28532;DHT22;15738;44.860;10.066;2023-09-19T12:29:53;29.00;99.90
28532;DHT22;15738;44.860;10.066;2023-09-19T12:46:55;28.30;99.90
28532;DHT22;15738;44.860;10.066;2023-09-19T12:50:08;28.80;99.90
28532;DHT22;15738;44.860;10.066;2023-09-19T12:55:46;28.40;99.90
28532;DHT22;15738;44.860;10.066;2023-09-19T12:58:47;29.10;99.90
28532;DHT22;15738;44.860;10.066;2023-09-19T13:01:33;29.00;99.90
28532;DHT22;15738;44.860;10.066;2023-09-19T13:04:26;28.80;99.90
28532;DHT22;15738;44.860;10.066;2023-09-19T13:07:40;29.20;99.90
28532;DHT22;15738;44.860;10.066;2023-09-19T13:13:24;29.30;99.90
28532;DHT22;15738;44.860;10.066;2023-09-19T13:16:13;29.10;99.90
28532;DHT22;15738;44.860;10.066;2023-09-19T13:19:11;29.20;99.90
28532;DHT22;15738;44.860;10.066;2023-09-19T13:24:44;30.00;99.90
28532;DHT22;15738;44.860;10.066;2023-09-19T13:30:17;29.30;99.90
28532;DHT22;15738;44.860;10.066;2023-09-19T13:33:10;29.10;99.90
28532;DHT22;15738;44.860;10.066;2023-09-19T13:41:32;29.00;99.90
28532;DHT22;15738;44.860;10.066;2023-09-19T13:44:18;28.60;99.90
28532;DHT22;15738;44.860;10.066;2023-09-19T13:47:42;28.90;99.90
28532;DHT22;15738;44.860;10.066;2023-09-19T13:50:29;29.20;99.90
28532;DHT22;15738;44.860;10.066;2023-09-19T13:56:02;28.90;99.90
28532;DHT22;15738;44.860;10.066;2023-09-19T14:15:28;28.60;99.90
28532;DHT22;15738;44.860;10.066;2023-09-19T14:18:17;28.60;99.90
28532;DHT22;15738;44.860;10.066;2023-09-19T14:21:05;28.90;99.90
28532;DHT22;15738;44.860;10.066;2023-09-19T14:26:38;28.80;99.90
28532;DHT22;15738;44.860;10.066;2023-09-19T14:32:10;28.80;99.90
28532;DHT22;15738;44.860;10.066;2023-09-19T14:40:29;28.90;99.90
28532;DHT22;15738;44.860;10.066;2023-09-19T14:46:07;28.60;99.90
28532;DHT22;15738;44.860;10.066;2023-09-19T14:48:56;28.90;99.90
28532;DHT22;15738;44.860;10.066;2023-09-19T14:54:33;28.90;99.90
28532;DHT22;15738;44.860;10.066;2023-09-19T15:00:06;28.60;99.90
28532;DHT22;15738;44.860;10.066;2023-09-19T15:02:57;29.00;99.90
28532;DHT22;15738;44.860;10.066;2023-09-19T15:08:30;28.90;99.90
28532;DHT22;15738;44.860;10.066;2023-09-19T15:11:17;28.80;99.90
28532;DHT22;15738;44.860;10.066;2023-09-19T15:14:03;28.90;99.90
28532;DHT22;15738;44.860;10.066;2023-09-19T15:16:53;28.80;99.90
28532;DHT22;15738;44.860;10.066;2023-09-19T15:25:12;29.20;99.90
28532;DHT22;15738;44.860;10.066;2023-09-19T15:33:41;28.10;99.90
28532;DHT22;15738;44.860;10.066;2023-09-19T15:36:27;29.00;99.90
28532;DHT22;15738;44.860;10.066;2023-09-19T15:42:00;28.30;99.90
28532;DHT22;15738;44.860;10.066;2023-09-19T15:47:35;28.30;99.90
28532;DHT22;15738;44.860;10.066;2023-09-19T15:53:07;28.50;99.90
28532;DHT22;15738;44.860;10.066;2023-09-19T15:58:41;28.10;99.90
28532;DHT22;15738;44.860;10.066;2023-09-19T16:01:29;27.90;99.90
28532;DHT22;15738;44.860;10.066;2023-09-19T16:04:15;28.00;99.90
28532;DHT22;15738;44.860;10.066;2023-09-19T16:07:02;28.00;99.90
28532;DHT22;15738;44.860;10.066;2023-09-19T16:09:50;27.90;99.90
28532;DHT22;15738;44.860;10.066;2023-09-19T16:12:35;28.20;99.90
28532;DHT22;15738;44.860;10.066;2023-09-19T16:15:22;28.10;99.90
28532;DHT22;15738;44.860;10.066;2023-09-19T16:18:08;28.00;99.90
28532;DHT22;15738;44.860;10.066;2023-09-19T16:21:01;27.80;99.90
28532;DHT22;15738;44.860;10.066;2023-09-19T16:23:48;28.20;99.90
28532;DHT22;15738;44.860;10.066;2023-09-19T16:34:56;27.70;99.90
28532;DHT22;15738;44.860;10.066;2023-09-19T16:37:43;27.30;99.90
28532;DHT22;15738;44.860;10.066;2023-09-19T16:46:05;27.60;99.90
28532;DHT22;15738;44.860;10.066;2023-09-19T16:54:35;27.40;99.90
28532;DHT22;15738;44.860;10.066;2023-09-19T17:00:08;27.30;99.90
28532;DHT22;15738;44.860;10.066;2023-09-19T17:02:56;27.20;99.90
28532;DHT22;15738;44.860;10.066;2023-09-19T17:05:44;27.40;99.90
28532;DHT22;15738;44.860;10.066;2023-09-19T17:08:32;27.20;99.90
28532;DHT22;15738;44.860;10.066;2023-09-19T17:11:19;27.10;99.90
28532;DHT22;15738;44.860;10.066;2023-09-19T17:19:41;26.80;99.90
28532;DHT22;15738;44.860;10.066;2023-09-19T17:22:27;27.00;99.90
28532;DHT22;15738;44.860;10.066;2023-09-19T17:25:13;26.90;99.90
28532;DHT22;15738;44.860;10.066;2023-09-19T17:30:45;26.70;99.90
28532;DHT22;15738;44.860;10.066;2023-09-19T17:36:18;26.70;99.90
28532;DHT22;15738;44.860;10.066;2023-09-19T17:39:04;26.50;99.90
28532;DHT22;15738;44.860;10.066;2023-09-19T17:44:38;26.60;99.90
28532;DHT22;15738;44.860;10.066;2023-09-19T17:58:32;26.20;99.90
28532;DHT22;15738;44.860;10.066;2023-09-19T18:01:18;26.20;99.90
28532;DHT22;15738;44.860;10.066;2023-09-19T18:07:04;26.10;99.90
28532;DHT22;15738;44.860;10.066;2023-09-19T18:09:50;26.10;99.90
28532;DHT22;15738;44.860;10.066;2023-09-19T18:12:36;26.10;99.90
28532;DHT22;15738;44.860;10.066;2023-09-19T18:18:10;26.00;99.90
28532;DHT22;15738;44.860;10.066;2023-09-19T18:21:00;26.00;99.90
28532;DHT22;15738;44.860;10.066;2023-09-19T18:23:58;25.80;99.90
28532;DHT22;15738;44.860;10.066;2023-09-19T18:26:45;25.90;99.90
28532;DHT22;15738;44.860;10.066;2023-09-19T18:32:18;26.20;99.90
28532;DHT22;15738;44.860;10.066;2023-09-19T18:35:05;25.80;99.90
28532;DHT22;15738;44.860;10.066;2023-09-19T18:37:53;25.70;99.90
28532;DHT22;15738;44.860;10.066;2023-09-19T18:40:43;25.60;99.90
28532;DHT22;15738;44.860;10.066;2023-09-19T18:43:30;25.60;99.90
28532;DHT22;15738;44.860;10.066;2023-09-19T18:49:03;25.50;99.90
28532;DHT22;15738;44.860;10.066;2023-09-19T18:54:35;25.60;99.90
28532;DHT22;15738;44.860;10.066;2023-09-19T19:00:08;25.40;99.90
28532;DHT22;15738;44.860;10.066;2023-09-19T19:02:55;25.30;99.90
28532;DHT22;15738;44.860;10.066;2023-09-19T19:05:41;25.20;99.90
28532;DHT22;15738;44.860;10.066;2023-09-19T19:11:17;25.30;99.90
28532;DHT22;15738;44.860;10.066;2023-09-19T19:14:05;25.10;99.90
28532;DHT22;15738;44.860;10.066;2023-09-19T19:16:51;25.10;99.90
28532;DHT22;15738;44.860;10.066;2023-09-19T19:19:39;25.20;99.90
28532;DHT22;15738;44.860;10.066;2023-09-19T19:22:28;25.10;99.90
28532;DHT22;15738;44.860;10.066;2023-09-19T19:25:14;25.20;99.90
28532;DHT22;15738;44.860;10.066;2023-09-19T19:30:47;25.20;99.90
28532;DHT22;15738;44.860;10.066;2023-09-19T19:33:33;25.10;99.90
28532;DHT22;15738;44.860;10.066;2023-09-19T19:36:20;24.90;99.90
28532;DHT22;15738;44.860;10.066;2023-09-19T19:39:07;25.00;99.90
28532;DHT22;15738;44.860;10.066;2023-09-19T19:47:26;24.90;99.90
28532;DHT22;15738;44.860;10.066;2023-09-19T19:50:13;24.80;99.90
28532;DHT22;15738;44.860;10.066;2023-09-19T19:55:47;24.80;99.90
28532;DHT22;15738;44.860;10.066;2023-09-19T19:58:34;24.70;99.90
28532;DHT22;15738;44.860;10.066;2023-09-19T20:01:24;24.70;99.90
28532;DHT22;15738;44.860;10.066;2023-09-19T20:12:32;24.60;99.90
28532;DHT22;15738;44.860;10.066;2023-09-19T20:15:17;24.70;99.90
28532;DHT22;15738;44.860;10.066;2023-09-19T20:18:07;24.60;99.90
28532;DHT22;15738;44.860;10.066;2023-09-19T20:21:07;24.80;99.90
28532;DHT22;15738;44.860;10.066;2023-09-19T20:23:56;24.50;99.90
28532;DHT22;15738;44.860;10.066;2023-09-19T20:26:42;24.60;99.90
28532;DHT22;15738;44.860;10.066;2023-09-19T20:29:29;24.50;99.90
28532;DHT22;15738;44.860;10.066;2023-09-19T20:32:15;24.30;99.90
28532;DHT22;15738;44.860;10.066;2023-09-19T20:40:40;24.30;99.90
28532;DHT22;15738;44.860;10.066;2023-09-19T20:43:29;24.20;99.90
28532;DHT22;15738;44.860;10.066;2023-09-19T20:46:16;24.20;99.90
28532;DHT22;15738;44.860;10.066;2023-09-19T20:49:01;24.20;99.90
28532;DHT22;15738;44.860;10.066;2023-09-19T20:51:47;24.10;99.90
28532;DHT22;15738;44.860;10.066;2023-09-19T20:54:33;24.10;99.90
28532;DHT22;15738;44.860;10.066;2023-09-19T20:57:19;24.00;99.90
28532;DHT22;15738;44.860;10.066;2023-09-19T21:00:07;23.90;99.90
28532;DHT22;15738;44.860;10.066;2023-09-19T21:02:54;23.90;99.90
28532;DHT22;15738;44.860;10.066;2023-09-19T21:05:40;24.00;99.90
28532;DHT22;15738;44.860;10.066;2023-09-19T21:19:31;23.90;99.90
28532;DHT22;15738;44.860;10.066;2023-09-19T21:22:17;23.80;99.90
28532;DHT22;15738;44.860;10.066;2023-09-19T21:25:03;23.70;99.90
28532;DHT22;15738;44.860;10.066;2023-09-19T21:27:50;23.70;99.90
28532;DHT22;15738;44.860;10.066;2023-09-19T21:33:22;24.00;99.90
28532;DHT22;15738;44.860;10.066;2023-09-19T21:36:09;23.80;99.90
28532;DHT22;15738;44.860;10.066;2023-09-19T21:38:55;23.70;99.90
28532;DHT22;15738;44.860;10.066;2023-09-19T21:41:44;23.70;99.90
28532;DHT22;15738;44.860;10.066;2023-09-19T21:44:30;23.50;99.90
28532;DHT22;15738;44.860;10.066;2023-09-19T21:47:16;22.70;99.90
28532;DHT22;15738;44.860;10.066;2023-09-19T21:50:02;23.60;99.90
28532;DHT22;15738;44.860;10.066;2023-09-19T22:01:08;23.40;99.90
28532;DHT22;15738;44.860;10.066;2023-09-19T22:03:54;23.30;99.90
28532;DHT22;15738;44.860;10.066;2023-09-19T22:09:26;23.40;99.90
28532;DHT22;15738;44.860;10.066;2023-09-19T22:14:59;23.10;99.90
28532;DHT22;15738;44.860;10.066;2023-09-19T22:26:21;23.20;99.90
28532;DHT22;15738;44.860;10.066;2023-09-19T22:29:10;23.30;99.90
28532;DHT22;15738;44.860;10.066;2023-09-19T22:31:56;23.10;99.90
28532;DHT22;15738;44.860;10.066;2023-09-19T22:34:42;22.80;99.90
28532;DHT22;15738;44.860;10.066;2023-09-19T22:37:28;22.30;99.90
28532;DHT22;15738;44.860;10.066;2023-09-19T22:43:13;22.80;99.90
28532;DHT22;15738;44.860;10.066;2023-09-19T22:46:00;23.00;99.90
28532;DHT22;15738;44.860;10.066;2023-09-19T22:48:54;22.80;99.90
28532;DHT22;15738;44.860;10.066;2023-09-19T22:57:21;22.60;99.90
28532;DHT22;15738;44.860;10.066;2023-09-19T23:00:08;23.20;99.90
28532;DHT22;15738;44.860;10.066;2023-09-19T23:05:43;22.80;99.90
28532;DHT22;15738;44.860;10.066;2023-09-19T23:08:30;22.80;99.90
28532;DHT22;15738;44.860;10.066;2023-09-19T23:11:19;21.80;99.90
28532;DHT22;15738;44.860;10.066;2023-09-19T23:14:07;22.20;99.90
28532;DHT22;15738;44.860;10.066;2023-09-19T23:16:53;22.30;99.90
28532;DHT22;15738;44.860;10.066;2023-09-19T23:19:44;22.30;99.90
28532;DHT22;15738;44.860;10.066;2023-09-19T23:22:36;22.00;99.90
28532;DHT22;15738;44.860;10.066;2023-09-19T23:25:22;22.00;99.90
28532;DHT22;15738;44.860;10.066;2023-09-19T23:28:13;22.20;99.90
28532;DHT22;15738;44.860;10.066;2023-09-19T23:36:38;21.70;99.90
28532;DHT22;15738;44.860;10.066;2023-09-19T23:39:24;21.90;99.90
28532;DHT22;15738;44.860;10.066;2023-09-19T23:47:44;21.70;99.90
28532;DHT22;15738;44.860;10.066;2023-09-19T23:50:31;21.90;99.90
28532;DHT22;15738;44.860;10.066;2023-09-19T23:53:20;22.60;99.90
28532;DHT22;15738;44.860;10.066;2023-09-19T23:56:06;21.70;99.90
28532;DHT22;15738;44.860;10.066;2023-09-19T23:58:54;21.80;99.90
